Time;durP1;ratioP1;P1;durP2;ratioP2;P2;SDS_P1;SDS_P2;PMS_P1;PMS_P2;Temp;Humidity;BMP_temperature;BMP_pressure;BME280_temperature;BME280_humidity;BME280_pressure;Samples;Min_cycle;Max_cycle;Signal;HPM_P1;HPM_P2
2022/04/30 00:00:16;;;;;;;16.92;9.10;;;6.20;99.90;;;;;;5069335;28;20542;-61
2022/04/30 00:02:44;;;;;;;15.90;8.80;;;6.10;99.90;;;;;;5052676;28;20041;-61
2022/04/30 00:05:12;;;;;;;23.52;11.90;;;6.10;99.90;;;;;;5051966;28;20080;-64
2022/04/30 00:07:39;;;;;;;18.85;9.40;;;6.10;99.90;;;;;;5056810;28;20048;-60
2022/04/30 00:10:09;;;;;;;20.20;9.50;;;6.00;99.90;;;;;;5058657;28;20045;-60
2022/04/30 00:12:36;;;;;;;16.17;8.88;;;6.00;99.90;;;;;;5062751;28;20045;-60
2022/04/30 00:15:05;;;;;;;18.38;9.07;;;5.90;99.90;;;;;;5052115;28;20048;-60
2022/04/30 00:17:33;;;;;;;19.02;10.15;;;5.90;99.90;;;;;;5062148;28;20056;-61
2022/04/30 00:20:03;;;;;;;26.05;13.88;;;5.80;99.90;;;;;;5058109;28;20049;-61
2022/04/30 00:22:30;;;;;;;;;;;5.80;99.90;;;;;;5051975;28;20044;-61
2022/04/30 00:24:58;;;;;;;30.27;13.05;;;5.70;99.90;;;;;;5064067;28;19920;-62
2022/04/30 00:27:26;;;;;;;30.83;15.52;;;5.70;99.90;;;;;;5065579;28;20530;-62
2022/04/30 00:29:54;;;;;;;29.55;14.10;;;5.60;99.90;;;;;;5049133;28;20239;-61
2022/04/30 00:32:22;;;;;;;31.50;15.23;;;5.60;99.90;;;;;;5068260;28;20048;-61
2022/04/30 00:34:49;;;;;;;22.55;13.07;;;5.60;99.90;;;;;;5068707;28;20052;-61
2022/04/30 00:37:17;;;;;;;25.25;13.38;;;5.50;99.90;;;;;;5051317;28;20389;-61
2022/04/30 00:39:46;;;;;;;23.30;12.93;;;5.50;99.90;;;;;;5068584;28;20429;-60
2022/04/30 00:42:14;;;;;;;21.33;11.48;;;5.50;99.90;;;;;;5070060;28;20530;-61
2022/04/30 00:44:43;;;;;;;20.42;11.35;;;5.50;99.90;;;;;;5069793;28;20645;-61
2022/04/30 00:47:16;;;;;;;17.48;9.90;;;5.50;99.90;;;;;;5067828;28;20472;-60
2022/04/30 00:49:44;;;;;;;20.27;10.00;;;5.40;99.90;;;;;;5070581;28;20060;-61
2022/04/30 00:52:15;;;;;;;20.38;9.68;;;5.40;99.90;;;;;;5061504;28;20036;-61
2022/04/30 00:54:49;;;;;;;20.45;10.07;;;5.40;99.90;;;;;;5065348;28;20052;-62
2022/04/30 00:57:22;;;;;;;28.80;9.95;;;5.40;99.90;;;;;;5050978;28;20052;-62
2022/04/30 01:00:00;;;;;;;17.98;10.38;;;5.40;99.90;;;;;;5056530;28;20037;-61
2022/04/30 01:02:32;;;;;;;20.25;10.13;;;5.30;99.90;;;;;;5032717;28;20053;-62
2022/04/30 01:05:18;;;;;;;18.30;9.82;;;5.30;99.90;;;;;;5045118;28;20056;-62
2022/04/30 01:07:47;;;;;;;17.75;9.82;;;5.20;99.90;;;;;;5049514;28;20412;-62
2022/04/30 01:10:15;;;;;;;24.95;11.80;;;5.20;99.90;;;;;;5066133;28;20051;-60
2022/04/30 01:12:43;;;;;;;19.33;10.15;;;5.20;99.90;;;;;;5048596;28;20045;-61
2022/04/30 01:15:12;;;;;;;18.38;9.43;;;5.10;99.90;;;;;;5050909;28;20060;-61
2022/04/30 01:17:42;;;;;;;21.52;10.25;;;5.10;99.90;;;;;;5057901;28;20052;-64
2022/04/30 01:20:10;;;;;;;19.83;11.05;;;5.00;99.90;;;;;;5049728;28;20049;-59
2022/04/30 01:22:54;;;;;;;20.05;10.43;;;5.00;99.90;;;;;;5054854;28;20063;-60
2022/04/30 01:25:25;;;;;;;23.02;12.48;;;5.00;99.90;;;;;;5066570;28;20384;-59
2022/04/30 01:27:54;;;;;;;28.42;13.88;;;4.90;99.90;;;;;;5067488;28;20187;-64
2022/04/30 01:30:22;;;;;;;27.10;12.10;;;4.90;99.90;;;;;;5067575;28;20045;-63
2022/04/30 01:38:33;;;;;;;24.17;13.63;;;4.80;99.90;;;;;;5060193;28;20056;-59
2022/04/30 01:41:01;;;;;;;29.38;14.13;;;4.70;99.90;;;;;;5052831;28;20037;-59
2022/04/30 01:43:29;;;;;;;24.27;13.85;;;4.70;99.90;;;;;;5051284;28;20408;-60
2022/04/30 01:45:57;;;;;;;25.75;14.88;;;4.70;99.90;;;;;;5054763;28;20131;-59
2022/04/30 01:48:25;;;;;;;26.95;14.70;;;4.60;99.90;;;;;;5065145;28;20044;-59
2022/04/30 01:50:54;;;;;;;26.85;16.10;;;4.60;99.90;;;;;;5051771;28;20511;-59
2022/04/30 01:53:22;;;;;;;28.40;16.33;;;4.60;99.90;;;;;;5069966;28;20056;-59
2022/04/30 01:55:51;;;;;;;25.92;14.05;;;4.60;99.90;;;;;;5071633;28;20056;-59
2022/04/30 01:58:30;;;;;;;23.38;12.45;;;4.50;99.90;;;;;;5069159;28;20605;-59
2022/04/30 02:01:00;;;;;;;21.02;12.43;;;4.50;99.90;;;;;;5071712;28;20037;-59
2022/04/30 02:03:28;;;;;;;28.85;12.98;;;4.50;99.90;;;;;;5069399;28;20052;-59
2022/04/30 02:05:56;;;;;;;22.83;12.88;;;4.50;99.90;;;;;;5051131;28;20044;-59
2022/04/30 02:08:24;;;;;;;26.60;13.00;;;4.40;99.90;;;;;;5051465;28;20045;-59
2022/04/30 02:10:51;;;;;;;27.80;13.93;;;4.40;99.90;;;;;;5049968;28;20515;-60
2022/04/30 02:13:23;;;;;;;22.65;12.57;;;4.40;99.90;;;;;;5051061;28;20429;-59
2022/04/30 02:15:53;;;;;;;23.25;11.90;;;4.30;99.90;;;;;;5050608;28;20049;-60
2022/04/30 02:18:24;;;;;;;23.77;13.02;;;4.30;99.90;;;;;;5050262;28;20448;-59
2022/04/30 02:20:53;;;;;;;23.65;11.82;;;4.30;99.90;;;;;;5064444;28;20060;-59
2022/04/30 02:23:22;;;;;;;27.33;13.13;;;4.30;99.90;;;;;;5071351;28;20049;-59
2022/04/30 02:25:51;;;;;;;24.67;12.02;;;4.30;99.90;;;;;;5059386;28;20049;-59
2022/04/30 02:28:18;;;;;;;26.27;12.23;;;4.20;99.90;;;;;;5051271;28;20206;-59
2022/04/30 02:30:47;;;;;;;21.50;11.50;;;4.20;99.90;;;;;;5055987;28;20056;-59
2022/04/30 02:33:16;;;;;;;24.17;12.50;;;4.20;99.90;;;;;;5068897;28;20052;-59
2022/04/30 02:35:44;;;;;;;23.95;12.25;;;4.20;99.90;;;;;;5071194;28;20041;-60
2022/04/30 02:38:13;;;;;;;19.08;10.55;;;4.10;99.90;;;;;;5073370;28;20056;-61
2022/04/30 02:40:42;;;;;;;22.40;10.50;;;4.10;99.90;;;;;;5075162;28;20488;-60
2022/04/30 02:43:15;;;;;;;29.60;11.27;;;4.00;99.90;;;;;;5075104;28;20059;-59
2022/04/30 02:45:43;;;;;;;19.35;10.25;;;4.00;99.90;;;;;;5072973;28;20040;-60
2022/04/30 02:48:13;;;;;;;18.15;9.13;;;3.90;99.90;;;;;;5075107;28;20048;-62
2022/04/30 02:50:40;;;;;;;23.52;9.77;;;3.90;99.90;;;;;;5072915;28;20051;-61
2022/04/30 02:53:08;;;;;;;21.45;9.25;;;4.00;99.90;;;;;;5056602;28;20052;-60
2022/04/30 02:55:36;;;;;;;20.52;9.13;;;3.90;99.90;;;;;;5054885;28;20041;-62
2022/04/30 03:01:01;;;;;;;19.20;8.63;;;3.90;99.90;;;;;;5034954;28;20492;-60
2022/04/30 03:03:49;;;;;;;18.08;9.02;;;3.80;99.90;;;;;;5054694;28;20049;-60
2022/04/30 03:06:17;;;;;;;22.10;9.20;;;3.80;99.90;;;;;;5054588;28;20056;-60
2022/04/30 03:08:47;;;;;;;18.55;9.23;;;3.80;99.90;;;;;;5054675;28;20040;-61
2022/04/30 03:11:14;;;;;;;19.42;9.30;;;3.80;99.90;;;;;;5053584;28;20049;-60
2022/04/30 03:13:42;;;;;;;19.10;8.93;;;3.70;99.90;;;;;;5053190;28;20060;-60
2022/04/30 03:21:45;;;;;;;22.48;8.95;;;3.50;99.90;;;;;;5054251;28;20041;-60
2022/04/30 03:24:16;;;;;;;21.50;8.90;;;3.60;99.90;;;;;;5054397;28;20067;-60
2022/04/30 03:26:48;;;;;;;20.38;9.43;;;3.50;99.90;;;;;;5054578;28;20060;-59
2022/04/30 03:29:16;;;;;;;22.00;9.95;;;3.50;99.90;;;;;;5053052;28;20045;-60
2022/04/30 03:31:45;;;;;;;16.58;8.90;;;3.50;99.90;;;;;;5052918;28;20507;-60
2022/04/30 03:34:14;;;;;;;24.00;10.20;;;3.50;99.90;;;;;;5054087;28;20045;-61
2022/04/30 03:36:43;;;;;;;20.47;9.07;;;3.40;99.90;;;;;;5054286;28;20056;-60
2022/04/30 03:39:11;;;;;;;18.95;9.18;;;3.40;99.90;;;;;;5053071;28;20305;-62
2022/04/30 03:41:38;;;;;;;20.95;10.25;;;3.30;99.90;;;;;;5054140;28;20041;-60
2022/04/30 03:44:07;;;;;;;33.20;9.73;;;3.30;99.90;;;;;;5053948;28;20052;-61
2022/04/30 03:46:35;;;;;;;21.38;8.90;;;3.20;99.90;;;;;;5053623;28;20045;-62
2022/04/30 03:49:04;;;;;;;19.30;8.32;;;3.20;99.90;;;;;;5054237;28;20068;-60
2022/04/30 03:51:31;;;;;;;24.05;9.27;;;3.20;99.90;;;;;;5054059;28;20068;-62
2022/04/30 03:53:59;;;;;;;18.13;9.02;;;3.20;99.90;;;;;;5052715;28;20045;-62
2022/04/30 03:56:26;;;;;;;18.15;8.68;;;3.20;99.90;;;;;;5053909;28;20045;-61
2022/04/30 03:58:54;;;;;;;19.42;8.70;;;3.20;99.90;;;;;;5052584;28;20049;-62
2022/04/30 04:01:22;;;;;;;18.25;9.07;;;3.20;99.90;;;;;;5052582;28;20053;-61
2022/04/30 04:03:50;;;;;;;20.80;8.52;;;3.10;99.90;;;;;;5053943;28;20108;-59
2022/04/30 04:06:18;;;;;;;19.08;9.05;;;3.10;99.90;;;;;;5053593;28;20041;-60
2022/04/30 04:08:52;;;;;;;15.95;8.57;;;3.10;99.90;;;;;;5053634;28;20512;-62
2022/04/30 04:11:22;;;;;;;16.20;8.70;;;3.10;99.90;;;;;;5052526;28;20051;-58
2022/04/30 04:19:24;;;;;;;17.33;8.30;;;3.10;99.90;;;;;;5053389;28;20123;-59
2022/04/30 04:21:51;;;;;;;17.88;8.40;;;3.00;99.90;;;;;;5053458;28;20067;-60
2022/04/30 04:27:17;;;;;;;19.13;8.90;;;3.00;99.90;;;;;;5033569;28;20061;-59
2022/04/30 04:29:46;;;;;;;19.13;8.80;;;3.00;99.90;;;;;;5053060;28;20048;-60
2022/04/30 04:32:14;;;;;;;18.98;8.30;;;2.90;99.90;;;;;;5051877;28;20492;-60
2022/04/30 04:34:42;;;;;;;18.92;9.68;;;2.90;99.90;;;;;;5052920;28;20052;-60
2022/04/30 04:37:17;;;;;;;20.85;10.00;;;2.90;99.90;;;;;;5053081;28;20429;-60
2022/04/30 04:39:44;;;;;;;22.75;9.02;;;2.90;99.90;;;;;;5051850;28;20614;-59
2022/04/30 04:42:12;;;;;;;15.90;9.02;;;2.90;99.90;;;;;;5051845;28;20045;-59
2022/04/30 04:44:40;;;;;;;18.00;8.63;;;2.90;99.90;;;;;;5053029;28;20052;-60
2022/04/30 04:47:08;;;;;;;16.23;8.60;;;2.90;99.90;;;;;;5051239;28;20400;-60
2022/04/30 04:49:35;;;;;;;18.45;9.02;;;2.90;99.90;;;;;;5048401;28;20056;-60
2022/04/30 04:52:03;;;;;;;21.02;9.43;;;2.90;99.90;;;;;;5049367;28;20037;-59
2022/04/30 04:54:31;;;;;;;18.30;8.50;;;2.90;99.90;;;;;;5049239;28;20049;-59
2022/04/30 04:56:59;;;;;;;20.48;9.00;;;2.90;99.90;;;;;;5049422;28;20049;-59
2022/04/30 04:59:26;;;;;;;20.35;8.93;;;2.90;99.90;;;;;;5068529;28;20407;-59
2022/04/30 05:01:54;;;;;;;19.17;9.18;;;2.90;99.90;;;;;;5062927;28;20053;-60
2022/04/30 05:04:24;;;;;;;18.42;9.25;;;2.90;99.90;;;;;;5045659;28;20041;-59
2022/04/30 05:06:51;;;;;;;;;;;2.90;99.90;;;;;;5048038;28;20052;-59
2022/04/30 05:09:19;;;;;;;23.05;9.70;;;2.90;99.90;;;;;;5069304;28;19935;-59
2022/04/30 05:11:47;;;;;;;20.10;9.60;;;2.90;99.90;;;;;;5052887;28;20408;-60
2022/04/30 05:14:15;;;;;;;19.08;9.18;;;2.90;99.90;;;;;;5052833;28;20056;-63
2022/04/30 05:16:42;;;;;;;18.98;9.82;;;2.90;99.90;;;;;;5062899;28;20045;-61
2022/04/30 05:19:10;;;;;;;24.05;10.77;;;2.90;99.90;;;;;;5048579;28;20045;-61
2022/04/30 05:21:38;;;;;;;25.70;10.05;;;2.90;99.90;;;;;;5048849;28;20057;-59
2022/04/30 05:24:06;;;;;;;20.30;9.18;;;2.90;99.90;;;;;;5050672;28;20048;-61
2022/04/30 05:26:33;;;;;;;20.52;10.13;;;2.90;99.90;;;;;;5050256;28;20056;-60
2022/04/30 05:29:01;;;;;;;19.63;9.80;;;3.00;99.90;;;;;;5066724;28;20040;-59
2022/04/30 05:31:29;;;;;;;19.70;10.05;;;3.00;99.90;;;;;;5068970;28;20064;-59
2022/04/30 05:33:56;;;;;;;19.00;9.02;;;3.00;99.90;;;;;;5057050;28;20041;-60
2022/04/30 05:36:24;;;;;;;29.33;9.77;;;3.00;99.90;;;;;;5047462;28;20053;-59
2022/04/30 05:38:52;;;;;;;21.38;9.32;;;3.10;99.90;;;;;;5062401;28;20052;-60
2022/04/30 05:41:20;;;;;;;20.80;8.98;;;3.10;99.90;;;;;;5066728;28;20040;-59
2022/04/30 05:43:52;;;;;;;18.55;9.55;;;3.10;99.90;;;;;;5063851;28;20049;-60
2022/04/30 05:46:20;;;;;;;20.83;9.60;;;3.20;99.90;;;;;;5064020;28;20052;-60
2022/04/30 05:48:48;;;;;;;21.38;10.32;;;3.30;99.90;;;;;;5058312;28;20037;-60
2022/04/30 05:51:16;;;;;;;26.55;11.00;;;3.40;99.90;;;;;;5050042;28;20045;-60
2022/04/30 05:53:43;;;;;;;22.98;9.95;;;3.40;99.90;;;;;;5048511;28;20044;-62
2022/04/30 05:56:11;;;;;;;18.77;9.23;;;3.40;99.90;;;;;;5046812;28;20053;-61
2022/04/30 05:58:39;;;;;;;26.15;11.75;;;3.50;99.90;;;;;;5046791;28;20431;-60
2022/04/30 06:01:06;;;;;;;22.52;10.43;;;3.60;99.90;;;;;;5047643;28;20041;-61
2022/04/30 06:03:34;;;;;;;27.40;11.60;;;3.60;99.90;;;;;;5049096;28;20412;-61
2022/04/30 06:06:03;;;;;;;24.00;11.25;;;3.90;99.90;;;;;;5047324;28;20052;-60
2022/04/30 06:08:30;;;;;;;29.95;11.90;;;3.90;99.90;;;;;;5053700;28;20048;-62
2022/04/30 06:11:00;;;;;;;26.60;11.82;;;3.90;99.90;;;;;;5049538;28;20067;-63
2022/04/30 06:13:27;;;;;;;21.33;11.13;;;4.10;99.90;;;;;;5063713;28;20060;-61
2022/04/30 06:15:55;;;;;;;24.55;10.40;;;4.10;99.90;;;;;;5068632;28;20435;-62
2022/04/30 06:18:25;;;;;;;24.60;11.38;;;4.30;99.90;;;;;;5060933;28;20052;-60
2022/04/30 06:20:53;;;;;;;27.48;11.77;;;4.40;99.90;;;;;;5048959;28;20041;-63
2022/04/30 06:23:20;;;;;;;27.83;11.10;;;4.50;99.90;;;;;;5045585;28;20408;-64
2022/04/30 06:25:48;;;;;;;20.83;11.23;;;4.60;99.90;;;;;;5054722;28;20048;-61
2022/04/30 06:28:16;;;;;;;25.40;11.52;;;4.80;99.90;;;;;;5059479;28;20045;-63
2022/04/30 06:30:44;;;;;;;24.30;11.60;;;4.90;99.90;;;;;;5062272;28;20059;-64
2022/04/30 06:33:12;;;;;;;20.52;10.90;;;5.00;99.90;;;;;;5057511;28;20037;-63
2022/04/30 06:35:39;;;;;;;19.83;10.52;;;5.20;99.90;;;;;;5056294;28;20053;-63
2022/04/30 06:38:08;;;;;;;21.05;10.35;;;5.30;99.90;;;;;;5057795;28;20048;-61
2022/04/30 06:40:36;;;;;;;23.52;11.32;;;5.40;99.90;;;;;;5050149;28;20056;-62
2022/04/30 06:43:04;;;;;;;24.88;11.10;;;5.60;99.90;;;;;;5049413;28;20375;-62
2022/04/30 06:45:32;;;;;;;25.40;11.07;;;5.80;99.90;;;;;;5048002;28;20040;-61
2022/04/30 06:48:00;;;;;;;20.85;9.63;;;5.90;99.90;;;;;;5061857;28;20052;-61
2022/04/30 06:50:27;;;;;;;24.95;10.85;;;6.00;99.90;;;;;;5051076;28;20056;-61
2022/04/30 06:58:40;;;;;;;20.98;10.10;;;6.50;99.90;;;;;;5046799;28;20057;-61
2022/04/30 07:03:55;;;;;;;19.48;9.15;;;6.80;99.90;;;;;;5045081;28;20641;-62
2022/04/30 07:06:25;;;;;;;18.00;8.65;;;7.00;99.90;;;;;;5045023;28;20056;-61
2022/04/30 07:08:53;;;;;;;16.40;9.10;;;7.30;99.90;;;;;;5056819;28;20044;-61
2022/04/30 07:11:21;;;;;;;17.38;9.07;;;7.30;99.90;;;;;;5049318;28;20052;-62
2022/04/30 07:13:48;;;;;;;19.20;9.02;;;7.40;99.90;;;;;;5047194;28;20135;-61
2022/04/30 07:16:16;;;;;;;18.33;9.02;;;7.60;99.90;;;;;;5049015;28;20056;-61
2022/04/30 07:18:44;;;;;;;13.85;7.80;;;7.70;99.90;;;;;;5054243;28;20037;-62
2022/04/30 07:21:13;;;;;;;17.50;7.80;;;7.80;99.90;;;;;;5047242;28;20049;-61
2022/04/30 07:23:40;;;;;;;16.38;8.07;;;7.90;99.90;;;;;;5062198;28;20049;-61
2022/04/30 07:26:09;;;;;;;12.65;6.88;;;8.00;99.90;;;;;;5061793;28;20041;-60
2022/04/30 07:28:36;;;;;;;15.82;6.80;;;8.20;99.90;;;;;;5064793;28;20036;-61
2022/04/30 07:31:05;;;;;;;13.88;6.40;;;8.20;99.90;;;;;;5071252;28;20395;-62
2022/04/30 07:33:33;;;;;;;25.23;7.65;;;8.30;99.90;;;;;;5040766;28;20059;-60
2022/04/30 07:36:01;;;;;;;14.82;7.25;;;8.30;99.90;;;;;;5060245;28;20612;-59
2022/04/30 07:38:30;;;;;;;16.27;7.18;;;8.40;99.90;;;;;;5070575;28;20045;-60
2022/04/30 07:40:57;;;;;;;18.90;7.75;;;8.50;99.90;;;;;;5072574;28;20048;-59
2022/04/30 07:43:25;;;;;;;12.90;6.68;;;8.60;99.90;;;;;;5072179;28;20059;-58
2022/04/30 07:45:53;;;;;;;19.35;8.05;;;8.70;99.90;;;;;;5058049;28;20044;-59
2022/04/30 07:48:20;;;;;;;15.75;8.10;;;8.80;99.90;;;;;;5054292;28;20049;-59
2022/04/30 07:50:48;;;;;;;17.15;6.88;;;8.80;99.90;;;;;;5063810;28;20504;-59
2022/04/30 07:53:16;;;;;;;9.20;5.53;;;8.90;99.90;;;;;;5055204;28;20044;-60
2022/04/30 07:55:44;;;;;;;14.27;6.93;;;9.00;99.90;;;;;;5061332;28;20060;-60
2022/04/30 07:58:13;;;;;;;11.57;5.95;;;9.00;99.90;;;;;;5062713;28;20048;-58
2022/04/30 08:00:41;;;;;;;16.67;7.07;;;9.00;99.90;;;;;;5062965;28;20052;-59
2022/04/30 08:03:08;;;;;;;11.38;6.78;;;9.10;99.90;;;;;;5034840;28;20045;-59
2022/04/30 08:05:37;;;;;;;14.15;7.00;;;9.10;99.90;;;;;;5048381;28;20424;-59
2022/04/30 08:08:06;;;;;;;11.65;5.97;;;9.20;99.90;;;;;;5050548;28;20045;-59
2022/04/30 08:10:33;;;;;;;10.77;6.13;;;9.30;99.90;;;;;;5059393;28;20057;-59
2022/04/30 08:13:01;;;;;;;17.80;6.30;;;9.40;99.90;;;;;;5051562;28;20069;-59
2022/04/30 08:15:29;;;;;;;13.90;6.55;;;9.50;99.90;;;;;;5053575;28;20049;-59
2022/04/30 08:17:57;;;;;;;18.42;7.47;;;9.60;99.90;;;;;;5057824;28;20049;-59
2022/04/30 08:20:24;;;;;;;12.27;7.15;;;9.70;99.90;;;;;;5051255;28;20036;-59
2022/04/30 08:22:52;;;;;;;12.23;6.88;;;9.80;99.90;;;;;;5051887;28;20044;-59
2022/04/30 08:25:20;;;;;;;16.83;6.95;;;10.00;99.90;;;;;;5053262;28;20056;-59
2022/04/30 08:27:48;;;;;;;11.10;7.25;;;10.10;99.90;;;;;;5065338;28;20052;-59
2022/04/30 08:30:15;;;;;;;13.88;6.75;;;10.20;99.90;;;;;;5066000;28;20040;-59
2022/04/30 08:32:43;;;;;;;11.70;7.18;;;10.30;99.90;;;;;;5060989;28;20040;-60
2022/04/30 08:35:11;;;;;;;14.75;6.90;;;10.40;99.90;;;;;;5062561;28;20044;-60
2022/04/30 08:37:58;;;;;;;12.20;6.97;;;10.50;99.90;;;;;;5059613;28;20046;-60
2022/04/30 08:40:26;;;;;;;19.63;7.63;;;10.60;99.90;;;;;;5050721;28;20403;-59
2022/04/30 08:42:54;;;;;;;15.63;7.30;;;10.70;99.90;;;;;;5050357;28;20049;-58
2022/04/30 08:45:22;;;;;;;17.23;8.35;;;10.80;99.90;;;;;;5050381;28;20488;-61
2022/04/30 08:47:53;;;;;;;16.90;6.85;;;10.90;99.90;;;;;;5055087;28;20055;-62
2022/04/30 08:50:20;;;;;;;14.43;7.35;;;11.00;99.90;;;;;;5058322;28;20404;-59
2022/04/30 08:52:48;;;;;;;15.65;6.95;;;11.00;99.90;;;;;;5047855;28;20056;-58
2022/04/30 08:55:15;;;;;;;12.07;6.78;;;11.10;99.90;;;;;;5053238;28;20580;-58
2022/04/30 08:57:43;;;;;;;14.98;8.00;;;11.20;99.90;;;;;;5049079;28;20404;-59
2022/04/30 09:00:12;;;;;;;10.43;6.25;;;11.40;99.90;;;;;;5050726;28;20516;-59
2022/04/30 09:02:51;;;;;;;11.65;6.28;;;11.40;99.90;;;;;;5048575;28;20037;-59
2022/04/30 09:05:19;;;;;;;10.80;6.38;;;11.60;99.90;;;;;;5044353;28;20055;-59
2022/04/30 09:07:57;;;;;;;15.32;6.45;;;11.60;99.90;;;;;;5058668;28;20593;-59
2022/04/30 09:10:30;;;;;;;10.60;6.82;;;11.70;99.90;;;;;;5056272;28;20041;-63
2022/04/30 09:13:05;;;;;;;14.55;7.70;;;11.80;99.90;;;;;;5050204;28;20041;-62
2022/04/30 09:15:34;;;;;;;15.70;8.00;;;11.90;99.90;;;;;;5049816;28;20420;-61
2022/04/30 09:18:03;;;;;;;11.20;7.47;;;11.90;99.90;;;;;;5048235;28;20064;-62
2022/04/30 09:20:51;;;;;;;17.50;7.60;;;12.00;99.90;;;;;;5051524;28;20044;-59
2022/04/30 09:23:31;;;;;;;14.55;6.97;;;12.20;99.90;;;;;;5051902;28;20051;-58
2022/04/30 09:26:03;;;;;;;14.10;7.72;;;12.30;99.90;;;;;;5059912;28;20036;-58
2022/04/30 09:28:34;;;;;;;17.73;7.25;;;12.30;99.90;;;;;;5064465;28;20498;-58
2022/04/30 09:31:16;;;;;;;10.45;6.18;;;12.40;99.90;;;;;;5058394;28;20041;-59
2022/04/30 09:33:57;;;;;;;23.20;6.85;;;12.50;99.90;;;;;;5060887;28;20040;-58
2022/04/30 09:39:18;;;;;;;29.77;6.78;;;12.80;99.90;;;;;;5058329;28;20045;-58
2022/04/30 09:41:49;;;;;;;9.95;5.47;;;13.00;99.90;;;;;;5062487;28;20045;-59
2022/04/30 09:44:17;;;;;;;11.98;6.53;;;13.10;99.90;;;;;;5049568;28;20037;-60
2022/04/30 09:46:45;;;;;;;11.50;6.32;;;13.20;99.90;;;;;;5051607;28;20045;-59
2022/04/30 09:54:45;;;;;;;9.93;5.43;;;13.70;99.50;;;;;;5049978;28;20044;-60
2022/04/30 09:57:16;;;;;;;8.73;4.97;;;13.80;98.90;;;;;;5056417;28;20052;-63
2022/04/30 09:59:46;;;;;;;7.68;4.43;;;13.90;97.80;;;;;;5053498;28;20055;-61
2022/04/30 10:02:19;;;;;;;12.00;5.53;;;14.00;96.20;;;;;;5051445;28;20051;-59
2022/04/30 10:04:47;;;;;;;8.52;5.05;;;14.10;96.00;;;;;;5047682;28;20045;-59
2022/04/30 10:07:19;;;;;;;6.43;4.47;;;14.10;95.60;;;;;;5057566;28;20052;-59
2022/04/30 10:10:07;;;;;;;8.93;5.18;;;14.20;94.80;;;;;;5050140;28;20037;-62
2022/04/30 10:12:41;;;;;;;15.43;6.20;;;14.30;95.00;;;;;;5053260;28;20041;-61
2022/04/30 10:15:37;;;;;;;18.13;5.85;;;14.40;94.50;;;;;;5055758;28;20040;-59
2022/04/30 10:18:08;;;;;;;12.63;5.35;;;14.40;94.60;;;;;;5055180;28;20037;-62
2022/04/30 10:20:35;;;;;;;14.38;5.50;;;14.50;94.10;;;;;;5052730;28;20057;-58
2022/04/30 10:23:05;;;;;;;9.43;5.50;;;14.50;93.30;;;;;;5059248;28;20480;-58
2022/04/30 10:25:34;;;;;;;7.53;4.53;;;14.50;92.90;;;;;;5050975;28;20062;-59
2022/04/30 10:28:17;;;;;;;6.60;4.07;;;14.50;92.40;;;;;;5054114;28;20044;-59
2022/04/30 10:30:57;;;;;;;10.60;6.07;;;14.60;92.60;;;;;;5050731;28;20063;-58
2022/04/30 10:33:25;;;;;;;10.93;6.15;;;14.70;92.40;;;;;;5049772;28;20052;-58
2022/04/30 10:36:22;;;;;;;12.23;5.03;;;14.80;92.50;;;;;;5047358;28;20436;-60
2022/04/30 10:38:59;;;;;;;10.57;5.75;;;15.00;91.80;;;;;;5047435;28;20063;-60
2022/04/30 10:41:27;;;;;;;7.97;4.57;;;15.10;91.40;;;;;;5056227;28;20052;-60
2022/04/30 10:44:02;;;;;;;7.15;4.63;;;15.10;90.80;;;;;;5049389;28;20052;-59
2022/04/30 10:46:38;;;;;;;10.48;5.57;;;15.20;90.20;;;;;;5057853;28;20060;-60
2022/04/30 10:49:06;;;;;;;9.27;5.22;;;15.10;90.30;;;;;;5052088;28;20037;-60
2022/04/30 10:51:40;;;;;;;9.27;5.10;;;15.20;90.60;;;;;;5054124;28;20049;-59
2022/04/30 10:54:18;;;;;;;10.20;5.57;;;15.40;90.50;;;;;;5051486;28;20033;-59
2022/04/30 10:57:01;;;;;;;11.40;6.07;;;15.50;89.40;;;;;;5051885;28;20048;-60
2022/04/30 10:59:29;;;;;;;10.77;5.55;;;15.70;90.00;;;;;;5053942;28;20041;-59
2022/04/30 11:01:56;;;;;;;8.23;5.25;;;15.80;89.70;;;;;;5054787;28;20045;-59
2022/04/30 11:04:24;;;;;;;9.32;5.90;;;16.00;89.60;;;;;;5050998;28;20044;-60
2022/04/30 11:06:54;;;;;;;11.20;5.65;;;16.10;88.60;;;;;;5056973;28;20045;-59
2022/04/30 11:09:23;;;;;;;11.55;4.85;;;16.20;87.80;;;;;;5063608;28;20037;-60
2022/04/30 11:11:51;;;;;;;9.48;4.90;;;16.20;87.40;;;;;;5058494;28;20059;-59
2022/04/30 11:14:22;;;;;;;9.75;5.18;;;16.30;85.80;;;;;;5054931;28;20052;-59
2022/04/30 11:16:49;;;;;;;10.82;5.15;;;16.50;85.70;;;;;;5067997;28;20051;-61
2022/04/30 11:19:19;;;;;;;7.93;4.18;;;16.60;84.50;;;;;;5061254;28;20029;-59
2022/04/30 11:21:55;;;;;;;9.07;5.60;;;16.70;81.80;;;;;;5048895;28;20041;-62
2022/04/30 11:24:30;;;;;;;8.38;5.65;;;16.70;82.50;;;;;;5055363;28;20088;-65
2022/04/30 11:27:00;;;;;;;6.90;4.10;;;16.80;83.70;;;;;;5056919;28;20051;-63
2022/04/30 11:29:28;;;;;;;7.55;4.47;;;17.00;83.60;;;;;;5061912;28;20060;-63
2022/04/30 11:31:57;;;;;;;10.20;5.13;;;17.20;79.20;;;;;;5055357;28;20064;-64
2022/04/30 11:34:26;;;;;;;9.55;5.45;;;17.30;78.50;;;;;;5055428;28;20071;-63
2022/04/30 11:36:59;;;;;;;8.10;4.68;;;17.40;77.70;;;;;;5053006;28;20044;-65
2022/04/30 11:39:27;;;;;;;9.20;4.53;;;17.50;77.20;;;;;;5059686;28;20044;-61
2022/04/30 11:41:56;;;;;;;10.52;5.03;;;17.70;75.90;;;;;;5053159;28;20043;-64
2022/04/30 11:44:27;;;;;;;10.75;4.13;;;17.80;76.20;;;;;;5055310;28;20420;-64
2022/04/30 11:46:55;;;;;;;9.93;4.88;;;18.00;75.30;;;;;;5057558;28;20044;-64
2022/04/30 11:49:25;;;;;;;8.10;4.97;;;18.20;74.80;;;;;;5059858;28;20049;-62
2022/04/30 11:52:09;;;;;;;7.97;4.78;;;18.40;72.50;;;;;;5059376;28;20036;-63
2022/04/30 11:54:38;;;;;;;8.93;5.20;;;18.60;71.60;;;;;;5058203;28;20048;-60
2022/04/30 11:57:13;;;;;;;7.28;5.00;;;18.70;71.90;;;;;;5058242;28;20060;-61
2022/04/30 11:59:41;;;;;;;18.05;6.53;;;18.90;71.80;;;;;;5064516;28;20523;-60
2022/04/30 12:02:15;;;;;;;7.47;5.72;;;19.10;71.20;;;;;;5061996;28;20044;-59
2022/04/30 12:04:43;;;;;;;8.25;5.72;;;19.30;70.70;;;;;;5052525;28;20057;-61
2022/04/30 12:07:12;;;;;;;7.25;4.63;;;19.50;69.90;;;;;;5050977;28;20045;-60
2022/04/30 12:09:50;;;;;;;7.05;5.43;;;19.60;67.60;;;;;;5052467;28;20037;-60
2022/04/30 12:12:19;;;;;;;8.88;6.10;;;19.60;69.20;;;;;;5057886;28;20056;-60
2022/04/30 12:14:50;;;;;;;10.45;5.53;;;19.70;67.50;;;;;;5052782;28;20060;-60
2022/04/30 12:17:18;;;;;;;9.70;5.07;;;19.60;67.80;;;;;;5050086;28;20388;-61
2022/04/30 12:25:28;;;;;;;11.10;5.30;;;19.60;66.00;;;;;;5055414;28;20041;-63
2022/04/30 12:28:04;;;;;;;8.13;4.63;;;19.50;66.30;;;;;;5052849;28;20045;-61
2022/04/30 12:30:55;;;;;;;8.65;4.10;;;19.30;64.50;;;;;;5060831;28;20488;-62
2022/04/30 12:33:23;;;;;;;7.38;4.38;;;19.00;65.80;;;;;;5051642;28;20287;-60
2022/04/30 12:35:56;;;;;;;7.63;5.05;;;18.90;66.90;;;;;;5045930;28;20052;-63
2022/04/30 12:38:24;;;;;;;6.60;4.13;;;18.90;67.80;;;;;;5051034;28;20052;-63
2022/04/30 12:40:54;;;;;;;6.57;3.90;;;19.10;65.70;;;;;;5049294;28;20052;-65
2022/04/30 12:43:23;;;;;;;7.22;4.28;;;19.10;66.10;;;;;;5055260;28;20041;-60
2022/04/30 12:45:50;;;;;;;5.50;3.45;;;19.10;65.30;;;;;;5050356;28;20690;-61
2022/04/30 12:48:18;;;;;;;4.45;3.42;;;19.10;64.50;;;;;;5055796;28;20041;-61
2022/04/30 12:50:46;;;;;;;4.15;2.65;;;19.00;64.00;;;;;;5055853;28;20049;-62
2022/04/30 12:53:13;;;;;;;3.58;2.60;;;18.90;64.20;;;;;;5058687;28;20052;-61
2022/04/30 12:55:42;;;;;;;7.00;3.10;;;18.80;62.40;;;;;;5051949;28;20404;-60
2022/04/30 12:58:10;;;;;;;8.15;3.70;;;18.70;62.70;;;;;;5058529;28;20059;-60
2022/04/30 13:00:38;;;;;;;4.78;3.78;;;18.60;64.40;;;;;;5070114;28;20067;-62
2022/04/30 13:03:07;;;;;;;8.65;3.95;;;18.50;64.60;;;;;;5053892;28;20567;-61
2022/04/30 13:05:36;;;;;;;3.70;2.17;;;18.50;65.10;;;;;;5050714;28;20049;-61
2022/04/30 13:08:04;;;;;;;4.57;3.05;;;18.60;61.20;;;;;;5053280;28;20308;-64
2022/04/30 13:13:32;;;;;;;4.45;3.25;;;18.30;62.50;;;;;;5038985;28;20404;-63
2022/04/30 13:16:07;;;;;;;;;;;18.10;63.20;;;;;;5053761;28;20056;-63
2022/04/30 13:18:37;;;;;;;10.52;6.97;;;18.20;63.70;;;;;;5054741;28;20372;-61
2022/04/30 13:21:06;;;;;;;5.43;3.60;;;18.40;64.40;;;;;;5059271;28;20052;-64
2022/04/30 13:23:34;;;;;;;5.40;3.28;;;18.60;64.50;;;;;;5065414;28;20041;-63
2022/04/30 13:26:03;;;;;;;6.60;3.53;;;18.80;63.30;;;;;;5053492;28;20071;-66
2022/04/30 13:28:31;;;;;;;;;;;19.00;61.00;;;;;;5060979;28;20053;-64
2022/04/30 13:30:59;;;;;;;6.75;3.58;;;18.90;61.00;;;;;;5070283;28;19943;-63
2022/04/30 13:33:27;;;;;;;7.45;4.40;;;18.90;62.20;;;;;;5051469;28;20056;-66
2022/04/30 13:35:55;;;;;;;6.45;4.40;;;18.70;61.50;;;;;;5050565;28;20041;-62
2022/04/30 13:38:23;;;;;;;7.28;4.38;;;18.40;62.90;;;;;;5059032;28;20056;-64
2022/04/30 13:40:50;;;;;;;6.50;3.88;;;18.30;63.50;;;;;;5070365;28;20044;-61
2022/04/30 13:43:18;;;;;;;8.02;4.57;;;18.20;64.20;;;;;;5069005;28;20045;-60